createdAt,value
2018-04-17T00:02:13.915Z,77.30
2018-04-17T00:04:41.449Z,77.20
2018-04-17T00:07:08.988Z,77.20
2018-04-17T00:09:37.264Z,77.60
2018-04-17T00:12:05.568Z,77.70
2018-04-17T00:14:33.871Z,77.80
2018-04-17T00:17:01.396Z,77.80
2018-04-17T00:19:28.916Z,77.70
2018-04-17T00:21:56.453Z,77.80
2018-04-17T00:24:23.972Z,78.30
2018-04-17T00:26:51.507Z,77.50
2018-04-17T00:29:19.822Z,79.30
2018-04-17T00:31:47.353Z,79.30
2018-04-17T00:34:15.652Z,79.00
2018-04-17T00:36:43.935Z,79.20
2018-04-17T00:39:11.466Z,79.20
2018-04-17T00:41:39.009Z,79.20
2018-04-17T00:44:06.537Z,79.50
2018-04-17T00:46:34.065Z,79.60
2018-04-17T00:49:01.615Z,80.60
2018-04-17T00:51:29.152Z,80.70
2018-04-17T00:53:57.610Z,81.00
2018-04-17T00:56:25.145Z,81.70
2018-04-17T00:58:52.665Z,81.90
2018-04-17T01:01:20.215Z,81.60
2018-04-17T01:03:47.730Z,81.60
2018-04-17T01:06:15.263Z,81.50
2018-04-17T01:08:42.804Z,81.60
2018-04-17T01:11:10.353Z,80.60
2018-04-17T01:13:37.902Z,81.70
2018-04-17T01:16:05.429Z,80.90
2018-04-17T01:18:32.959Z,81.50
2018-04-17T01:21:00.481Z,81.30
2018-04-17T01:23:28.008Z,81.20
2018-04-17T01:25:55.530Z,81.50
2018-04-17T01:28:23.076Z,81.30
2018-04-17T01:30:50.611Z,81.40
2018-04-17T01:33:18.145Z,81.80
2018-04-17T01:35:45.670Z,81.60
2018-04-17T01:38:13.192Z,82.40
2018-04-17T01:40:40.705Z,82.70
2018-04-17T01:43:08.983Z,82.90
2018-04-17T01:45:36.515Z,82.30
2018-04-17T01:48:04.058Z,82.20
2018-04-17T01:50:31.577Z,81.40
2018-04-17T01:52:59.105Z,81.60
2018-04-17T01:55:26.647Z,81.20
2018-04-17T01:57:54.181Z,82.30
2018-04-17T02:00:21.705Z,82.20
2018-04-17T02:02:49.251Z,82.20
2018-04-17T02:05:16.773Z,82.60
2018-04-17T02:07:44.296Z,82.70
2018-04-17T02:10:11.812Z,82.50
2018-04-17T02:12:39.334Z,82.50
2018-04-17T02:15:06.861Z,82.50
2018-04-17T02:17:34.389Z,82.60
2018-04-17T02:20:01.913Z,83.00
2018-04-17T02:22:29.446Z,82.50
2018-04-17T02:24:56.961Z,82.90
2018-04-17T02:27:24.501Z,82.50
2018-04-17T02:29:52.044Z,82.80
2018-04-17T02:32:19.572Z,83.30
2018-04-17T02:34:47.099Z,83.30
2018-04-17T02:37:15.421Z,83.80
2018-04-17T02:39:42.945Z,83.70
2018-04-17T02:42:10.496Z,84.10
2018-04-17T02:44:38.036Z,83.60
2018-04-17T02:47:05.568Z,84.50
2018-04-17T02:49:33.088Z,83.50
2018-04-17T02:52:00.640Z,82.90
2018-04-17T02:54:28.172Z,83.30
2018-04-17T02:56:55.716Z,83.90
2018-04-17T02:59:23.232Z,83.70
2018-04-17T03:01:50.779Z,83.40
2018-04-17T03:04:18.310Z,83.10
2018-04-17T03:06:45.864Z,83.60
2018-04-17T03:09:13.397Z,83.20
2018-04-17T03:11:40.932Z,83.60
2018-04-17T03:14:08.455Z,84.30
2018-04-17T03:16:36.019Z,84.40
2018-04-17T03:19:03.554Z,84.10
2018-04-17T03:21:31.081Z,84.40
2018-04-17T03:23:59.401Z,84.60
2018-04-17T03:26:26.917Z,84.60
2018-04-17T03:28:54.457Z,84.30
2018-04-17T03:31:21.995Z,84.50
2018-04-17T03:33:50.328Z,84.70
2018-04-17T03:36:17.850Z,84.50
2018-04-17T03:38:45.383Z,84.50
2018-04-17T03:41:14.909Z,84.20
2018-04-17T03:43:42.448Z,84.20
2018-04-17T03:46:09.975Z,84.30
2018-04-17T03:48:38.285Z,84.00
2018-04-17T03:51:05.814Z,83.90
2018-04-17T03:53:33.351Z,84.40
2018-04-17T03:56:00.885Z,84.60
2018-04-17T03:58:28.433Z,84.10
2018-04-17T04:00:55.953Z,84.10
2018-04-17T04:03:23.504Z,84.80
2018-04-17T04:05:51.033Z,84.60
2018-04-17T04:08:18.571Z,85.10
2018-04-17T04:10:46.107Z,85.90
2018-04-17T04:13:13.669Z,85.70
2018-04-17T04:15:41.946Z,85.50
2018-04-17T04:18:21.356Z,85.50
2018-04-17T04:21:00.859Z,84.40
2018-04-17T04:23:41.180Z,84.10
2018-04-17T04:26:20.724Z,84.10
2018-04-17T04:28:48.280Z,85.00
2018-04-17T04:31:15.838Z,84.90
2018-04-17T04:33:44.134Z,85.60
2018-04-17T04:36:11.709Z,85.60
2018-04-17T04:38:39.240Z,85.10
2018-04-17T04:41:06.773Z,84.90
2018-04-17T04:43:34.344Z,85.20
2018-04-17T04:46:01.921Z,85.40
2018-04-17T04:48:29.454Z,86.10
2018-04-17T04:50:57.005Z,85.80
2018-04-17T04:53:24.551Z,85.50
2018-04-17T04:55:52.080Z,86.50
2018-04-17T04:58:19.624Z,86.60
2018-04-17T05:00:47.156Z,86.00
2018-04-17T05:03:14.679Z,86.10
2018-04-17T05:05:42.984Z,86.40
2018-04-17T05:08:10.540Z,86.30
2018-04-17T05:10:38.817Z,85.90
2018-04-17T05:13:06.412Z,85.90
2018-04-17T05:15:33.962Z,86.10
2018-04-17T05:18:01.512Z,86.30
2018-04-17T05:20:29.051Z,86.50
2018-04-17T05:22:56.575Z,86.70
2018-04-17T05:25:24.101Z,86.90
2018-04-17T05:27:51.627Z,87.10
2018-04-17T05:30:19.943Z,85.00
2018-04-17T05:32:47.496Z,85.00
2018-04-17T05:35:15.788Z,85.60
2018-04-17T05:37:44.089Z,86.20
2018-04-17T05:40:11.657Z,86.20
2018-04-17T05:42:39.174Z,85.10
2018-04-17T05:45:06.714Z,84.30
2018-04-17T05:47:34.262Z,85.00
2018-04-17T05:50:01.782Z,86.30
2018-04-17T05:52:29.316Z,87.00
2018-04-17T05:54:56.836Z,84.60
2018-04-17T05:57:24.363Z,81.80
2018-04-17T05:59:52.607Z,82.60
2018-04-17T06:02:20.120Z,78.30
2018-04-17T06:04:47.656Z,73.50
2018-04-17T06:07:15.171Z,73.50
2018-04-17T06:09:42.710Z,72.40
2018-04-17T06:12:10.241Z,67.70
2018-04-17T06:14:38.396Z,66.30
2018-04-17T06:17:05.954Z,64.80
2018-04-17T06:19:33.497Z,63.40
2018-04-17T06:22:01.041Z,61.20
2018-04-17T06:24:28.584Z,60.50
2018-04-17T06:26:56.137Z,59.50
2018-04-17T06:29:23.687Z,58.30
2018-04-17T06:31:51.213Z,57.30
2018-04-17T06:34:18.749Z,57.90
2018-04-17T06:36:47.053Z,54.90
2018-04-17T06:39:14.595Z,54.90
2018-04-17T06:41:42.969Z,53.10
2018-04-17T06:44:11.213Z,51.80
2018-04-17T06:46:38.748Z,51.80
2018-04-17T06:49:07.053Z,48.40
2018-04-17T06:51:34.589Z,48.30
2018-04-17T06:54:02.124Z,47.50
2018-04-17T06:56:29.651Z,47.00
2018-04-17T06:58:57.945Z,48.00
2018-04-17T07:01:26.262Z,47.20
2018-04-17T07:03:53.823Z,47.10
2018-04-17T07:06:21.363Z,45.20
2018-04-17T07:08:48.892Z,44.70
2018-04-17T07:11:16.436Z,44.90
2018-04-17T07:13:43.984Z,44.20
2018-04-17T07:16:12.298Z,42.20
2018-04-17T07:18:39.841Z,42.20
2018-04-17T07:21:07.368Z,43.30
2018-04-17T07:23:34.917Z,43.60
2018-04-17T07:26:02.465Z,41.30
2018-04-17T07:28:29.984Z,40.90
2018-04-17T07:30:57.517Z,40.80
2018-04-17T07:33:25.070Z,40.30
2018-04-17T07:35:53.370Z,38.50
2018-04-17T07:38:21.676Z,39.20
2018-04-17T07:40:49.210Z,39.10
2018-04-17T07:43:17.687Z,40.70
2018-04-17T07:45:45.235Z,40.00
2018-04-17T07:48:24.584Z,38.80
2018-04-17T07:50:52.131Z,36.90
2018-04-17T07:53:19.677Z,36.10
2018-04-17T07:55:47.976Z,35.20
2018-04-17T07:58:16.258Z,35.60
2018-04-17T08:00:44.580Z,35.70
2018-04-17T08:03:12.093Z,35.60
2018-04-17T08:05:39.637Z,35.70
2018-04-17T08:08:07.169Z,34.60
2018-04-17T08:10:35.474Z,34.40
2018-04-17T08:13:03.000Z,34.40
2018-04-17T08:15:30.556Z,34.70
2018-04-17T08:17:58.092Z,34.70
2018-04-17T08:20:25.663Z,34.40
2018-04-17T08:22:53.201Z,34.30
2018-04-17T08:25:20.741Z,36.00
2018-04-17T08:27:48.259Z,35.00
2018-04-17T08:30:15.818Z,33.80
2018-04-17T08:32:44.125Z,33.60
2018-04-17T08:35:12.424Z,34.10
2018-04-17T08:37:39.952Z,34.00
2018-04-17T08:40:07.501Z,34.70
2018-04-17T08:42:35.041Z,34.70
2018-04-17T08:45:02.583Z,34.60
2018-04-17T08:47:30.891Z,34.20
2018-04-17T08:49:59.194Z,34.20
2018-04-17T08:52:26.725Z,34.20
2018-04-17T08:54:54.272Z,35.00
2018-04-17T08:57:21.805Z,35.60
2018-04-17T08:59:49.342Z,36.20
2018-04-17T09:02:16.885Z,35.50
2018-04-17T09:04:44.431Z,36.20
2018-04-17T09:07:11.972Z,34.60
2018-04-17T09:09:40.280Z,32.70
2018-04-17T09:12:07.813Z,32.70
2018-04-17T09:14:36.256Z,32.60
2018-04-17T09:17:03.837Z,33.70
2018-04-17T09:19:32.092Z,30.80
2018-04-17T09:21:59.634Z,30.90
2018-04-17T09:24:27.179Z,30.40
2018-04-17T09:26:54.717Z,30.10
2018-04-17T09:29:22.491Z,31.50
2018-04-17T09:31:50.762Z,29.70
2018-04-17T09:34:19.068Z,28.00
2018-04-17T09:36:46.607Z,28.00
2018-04-17T09:39:14.200Z,27.10
2018-04-17T09:41:41.712Z,27.40
2018-04-17T09:44:09.259Z,26.90
2018-04-17T09:46:36.873Z,27.00
2018-04-17T09:49:04.414Z,26.80
2018-04-17T09:51:31.942Z,25.90
2018-04-17T09:53:59.475Z,25.60
2018-04-17T09:56:27.009Z,25.80
2018-04-17T09:58:54.555Z,25.30
2018-04-17T10:01:23.003Z,26.40
2018-04-17T10:03:50.527Z,26.20
2018-04-17T10:06:18.162Z,26.80
2018-04-17T10:08:45.763Z,26.70
2018-04-17T10:11:13.259Z,25.80
2018-04-17T10:13:40.800Z,26.20
2018-04-17T10:16:08.351Z,26.00
2018-04-17T10:18:35.886Z,26.70
2018-04-17T10:21:03.418Z,27.00
2018-04-17T10:23:30.993Z,26.60
2018-04-17T10:25:58.536Z,26.90
2018-04-17T10:28:26.090Z,26.70
2018-04-17T10:30:54.332Z,26.40
2018-04-17T10:33:22.629Z,27.30
2018-04-17T10:35:50.197Z,26.70
2018-04-17T10:38:18.513Z,28.30
2018-04-17T10:40:46.063Z,28.30
2018-04-17T10:43:14.376Z,28.60
2018-04-17T10:45:41.922Z,29.10
2018-04-17T10:48:10.222Z,25.80
2018-04-17T10:50:38.233Z,25.80
2018-04-17T10:53:05.801Z,25.00
2018-04-17T10:55:33.346Z,26.20
2018-04-17T10:58:01.724Z,28.30
2018-04-17T11:00:29.331Z,28.20
2018-04-17T11:02:56.949Z,27.70
2018-04-17T11:05:24.500Z,26.90
2018-04-17T11:07:52.072Z,27.20
2018-04-17T11:10:19.598Z,27.80
2018-04-17T11:12:47.134Z,27.80
2018-04-17T11:15:14.656Z,27.90
2018-04-17T11:17:42.208Z,29.20
2018-04-17T11:20:10.524Z,30.00
2018-04-17T11:22:38.052Z,30.00
2018-04-17T11:25:05.595Z,29.40
2018-04-17T11:27:33.153Z,29.80
2018-04-17T11:30:00.683Z,30.50
2018-04-17T11:32:29.045Z,30.40
2018-04-17T11:34:56.546Z,30.40
2018-04-17T11:37:24.831Z,32.20
2018-04-17T11:39:53.154Z,33.50
2018-04-17T11:42:20.665Z,33.40
2018-04-17T11:44:48.201Z,31.30
2018-04-17T11:47:15.726Z,32.90
2018-04-17T11:49:43.274Z,32.70
2018-04-17T11:52:10.805Z,33.60
2018-04-17T11:54:38.335Z,32.10
2018-04-17T11:57:06.646Z,30.90
2018-04-17T11:59:34.171Z,30.70
2018-04-17T12:02:01.704Z,31.20
2018-04-17T12:04:29.258Z,31.30
2018-04-17T12:06:57.574Z,31.20
2018-04-17T12:09:25.129Z,31.20
2018-04-17T12:11:52.681Z,33.10
2018-04-17T12:14:20.986Z,34.10
2018-04-17T12:16:49.280Z,33.60
2018-04-17T12:19:16.817Z,33.60
2018-04-17T12:21:44.355Z,32.90
2018-04-17T12:24:11.897Z,33.50
2018-04-17T12:26:39.445Z,32.90
2018-04-17T12:29:08.254Z,32.70
2018-04-17T12:31:35.849Z,32.70
2018-04-17T12:34:03.385Z,34.10
2018-04-17T12:36:31.686Z,31.80
2018-04-17T12:38:59.240Z,31.70
2018-04-17T12:41:27.551Z,30.50
2018-04-17T12:43:55.853Z,29.90
2018-04-17T12:46:23.408Z,29.90
2018-04-17T12:48:50.954Z,31.20
2018-04-17T12:51:18.487Z,30.30
2018-04-17T12:53:45.991Z,29.70
2018-04-17T12:56:13.536Z,30.20
2018-04-17T12:58:41.066Z,31.00
2018-04-17T13:01:08.625Z,30.90
2018-04-17T13:03:36.157Z,30.50
2018-04-17T13:06:03.811Z,31.70
2018-04-17T13:08:31.362Z,30.20
2018-04-17T13:10:59.665Z,32.40
2018-04-17T13:13:28.437Z,31.80
2018-04-17T13:15:56.735Z,31.20
2018-04-17T13:18:24.268Z,31.20
2018-04-17T13:20:51.822Z,31.90
2018-04-17T13:23:19.360Z,31.80
2018-04-17T13:25:47.657Z,32.00
2018-04-17T13:28:15.192Z,32.10
2018-04-17T13:30:42.736Z,32.30
2018-04-17T13:33:10.269Z,32.50
2018-04-17T13:35:38.016Z,31.80
2018-04-17T13:38:05.568Z,31.10
2018-04-17T13:40:33.147Z,32.20
2018-04-17T13:43:00.686Z,31.20
2018-04-17T13:45:28.243Z,30.50
2018-04-17T13:47:55.767Z,31.00
2018-04-17T13:50:23.485Z,30.60
2018-04-17T13:52:51.974Z,31.40
2018-04-17T13:55:19.553Z,31.40
2018-04-17T13:57:47.232Z,30.80
2018-04-17T14:00:14.745Z,30.50
2018-04-17T14:02:42.297Z,29.20
2018-04-17T14:05:09.827Z,29.80
2018-04-17T14:07:37.424Z,29.60
2018-04-17T14:10:04.973Z,29.90
2018-04-17T14:12:32.525Z,29.40
2018-04-17T14:15:00.028Z,30.70
2018-04-17T14:17:27.608Z,30.40
2018-04-17T14:19:55.096Z,30.40
2018-04-17T14:22:22.626Z,31.10
2018-04-17T14:24:50.161Z,30.60
2018-04-17T14:27:17.699Z,31.00
2018-04-17T14:29:45.238Z,31.00
2018-04-17T14:32:12.769Z,29.60
2018-04-17T14:34:40.328Z,28.50
2018-04-17T14:37:07.865Z,28.90
2018-04-17T14:39:35.401Z,29.60
2018-04-17T14:42:02.926Z,30.60
2018-04-17T14:44:30.446Z,27.50
2018-04-17T14:46:58.770Z,29.00
2018-04-17T14:49:26.307Z,29.00
2018-04-17T14:51:53.859Z,28.30
2018-04-17T14:54:21.407Z,28.90
2018-04-17T14:56:48.928Z,28.70
2018-04-17T14:59:16.473Z,29.30
2018-04-17T15:01:44.042Z,28.70
2018-04-17T15:04:11.593Z,28.80
2018-04-17T15:06:39.145Z,28.80
2018-04-17T15:09:07.436Z,28.70
2018-04-17T15:11:34.984Z,28.70
2018-04-17T15:14:03.278Z,28.10
2018-04-17T15:16:30.820Z,28.10
2018-04-17T15:18:58.347Z,28.30
2018-04-17T15:21:25.906Z,27.90
2018-04-17T15:23:53.436Z,27.10
2018-04-17T15:26:20.978Z,27.30
2018-04-17T15:28:48.515Z,26.20
2018-04-17T15:31:16.110Z,25.90
2018-04-17T15:33:43.700Z,26.30
2018-04-17T15:36:11.268Z,27.40
2018-04-17T15:38:38.818Z,27.90
2018-04-17T15:41:06.353Z,29.50
2018-04-17T15:43:34.639Z,28.90
2018-04-17T15:46:02.972Z,28.80
2018-04-17T15:48:30.503Z,28.80
2018-04-17T15:50:58.051Z,28.70
2018-04-17T15:53:25.588Z,29.00
2018-04-17T15:55:53.162Z,28.10
2018-04-17T16:01:14.063Z,28.70
2018-04-17T16:03:42.404Z,29.60
2018-04-17T16:06:09.937Z,29.40
2018-04-17T16:08:38.254Z,28.00
2018-04-17T16:11:05.793Z,28.00
2018-04-17T16:13:33.363Z,27.80
2018-04-17T16:16:01.676Z,28.40
2018-04-17T16:18:29.213Z,28.40
2018-04-17T16:20:56.758Z,27.80
2018-04-17T16:23:24.303Z,28.50
2018-04-17T16:25:51.839Z,28.80
2018-04-17T16:28:20.162Z,28.50
2018-04-17T16:30:47.724Z,28.40
2018-04-17T16:33:15.255Z,29.10
2018-04-17T16:35:42.817Z,28.50
2018-04-17T16:38:10.354Z,28.80
2018-04-17T16:40:38.096Z,28.40
2018-04-17T16:43:06.413Z,29.00
2018-04-17T16:45:33.975Z,29.00
2018-04-17T16:48:01.560Z,28.50
2018-04-17T16:50:29.030Z,28.60
2018-04-17T16:52:56.568Z,28.00
2018-04-17T16:55:24.869Z,27.60
2018-04-17T16:57:52.417Z,27.60
2018-04-17T17:00:19.936Z,27.80
2018-04-17T17:02:47.483Z,28.50
2018-04-17T17:05:15.002Z,28.30
2018-04-17T17:07:42.543Z,27.60
2018-04-17T17:10:10.073Z,28.70
2018-04-17T17:12:37.624Z,28.30
2018-04-17T17:15:05.145Z,27.60
2018-04-17T17:17:32.692Z,27.50
2018-04-17T17:20:00.235Z,28.00
2018-04-17T17:22:27.776Z,28.40
2018-04-17T17:24:55.316Z,28.80
2018-04-17T17:27:23.630Z,29.20
2018-04-17T17:29:51.174Z,29.20
2018-04-17T17:32:18.694Z,29.40
2018-04-17T17:34:46.221Z,29.80
2018-04-17T17:37:14.520Z,30.00
2018-04-17T17:39:42.046Z,30.00
2018-04-17T17:42:09.584Z,30.50
2018-04-17T17:44:37.123Z,30.60
2018-04-17T17:47:05.411Z,31.30
2018-04-17T17:49:33.720Z,31.80
2018-04-17T17:52:01.248Z,31.70
2018-04-17T17:54:28.793Z,32.60
2018-04-17T17:56:56.327Z,33.80
2018-04-17T17:59:23.861Z,35.40
2018-04-17T18:01:51.423Z,35.90
2018-04-17T18:04:18.948Z,36.20
2018-04-17T18:06:46.489Z,36.20
2018-04-17T18:09:14.018Z,36.70
2018-04-17T18:11:41.552Z,37.30
2018-04-17T18:14:09.844Z,36.60
2018-04-17T18:16:37.401Z,36.60
2018-04-17T18:19:05.716Z,37.60
2018-04-17T18:21:33.266Z,37.50
2018-04-17T18:24:01.558Z,39.50
2018-04-17T18:26:29.865Z,39.50
2018-04-17T18:28:57.433Z,39.30
2018-04-17T18:31:25.003Z,39.70
2018-04-17T18:33:52.529Z,39.90
2018-04-17T18:36:20.106Z,40.40
2018-04-17T18:38:47.653Z,41.20
2018-04-17T18:41:15.201Z,41.30
2018-04-17T18:43:42.736Z,42.70
2018-04-17T18:46:11.043Z,43.90
2018-04-17T18:48:39.333Z,43.20
2018-04-17T18:51:07.634Z,44.20
2018-04-17T18:53:35.188Z,44.20
2018-04-17T18:56:03.503Z,45.00
2018-04-17T18:58:31.045Z,44.90
2018-04-17T19:00:59.364Z,45.00
2018-04-17T19:03:26.943Z,44.90
2018-04-17T19:05:54.472Z,45.20
2018-04-17T19:08:22.789Z,45.50
2018-04-17T19:10:50.341Z,45.50
2018-04-17T19:13:17.873Z,46.00
2018-04-17T19:15:45.394Z,46.60
2018-04-17T19:18:12.963Z,46.90
2018-04-17T19:20:40.485Z,47.50
2018-04-17T19:23:08.059Z,47.40
2018-04-17T19:25:35.598Z,46.60
2018-04-17T19:28:03.133Z,46.50
2018-04-17T19:30:30.660Z,47.50
2018-04-17T19:32:59.422Z,47.90
2018-04-17T19:35:27.744Z,49.40
2018-04-17T19:37:55.314Z,48.80
2018-04-17T19:40:22.891Z,49.20
2018-04-17T19:42:50.524Z,49.50
2018-04-17T19:45:18.047Z,49.80
2018-04-17T19:47:45.726Z,50.40
2018-04-17T19:50:13.291Z,50.30
2018-04-17T19:52:40.832Z,50.70
2018-04-17T19:55:08.381Z,51.10
2018-04-17T19:57:35.912Z,52.50
2018-04-17T20:00:03.499Z,52.60
2018-04-17T20:02:31.077Z,52.60
2018-04-17T20:04:58.605Z,53.30
2018-04-17T20:07:26.181Z,53.50
2018-04-17T20:09:54.093Z,54.10
2018-04-17T20:12:21.616Z,54.40
2018-04-17T20:14:49.162Z,54.80
2018-04-17T20:17:17.499Z,54.80
2018-04-17T20:19:45.020Z,54.70
2018-04-17T20:22:13.324Z,55.30
2018-04-17T20:24:40.876Z,55.20
2018-04-17T20:27:08.401Z,55.80
2018-04-17T20:29:36.007Z,56.90
2018-04-17T20:32:03.577Z,56.80
2018-04-17T20:34:31.104Z,57.00
2018-04-17T20:36:58.646Z,57.00
2018-04-17T20:39:26.169Z,57.00
2018-04-17T20:41:53.723Z,57.50
2018-04-17T20:44:21.258Z,57.60
2018-04-17T20:46:48.815Z,57.90
2018-04-17T20:49:16.353Z,58.30
2018-04-17T20:51:43.890Z,58.70
2018-04-17T20:54:11.424Z,59.10
2018-04-17T20:56:38.953Z,59.50
2018-04-17T20:59:06.511Z,60.20
2018-04-17T21:01:34.067Z,60.10
2018-04-17T21:04:02.381Z,61.40
2018-04-17T21:06:29.919Z,61.30
2018-04-17T21:08:58.463Z,63.00
2018-04-17T21:11:26.020Z,63.00
2018-04-17T21:13:53.923Z,62.90
2018-04-17T21:16:21.445Z,63.30
2018-04-17T21:18:48.963Z,63.00
2018-04-17T21:21:16.501Z,62.90
2018-04-17T21:23:44.055Z,63.20
2018-04-17T21:26:12.360Z,63.50
2018-04-17T21:28:39.900Z,63.00
2018-04-17T21:31:07.442Z,63.50
2018-04-17T21:33:34.979Z,63.30
2018-04-17T21:36:02.571Z,63.40
2018-04-17T21:38:30.046Z,64.00
2018-04-17T21:40:57.610Z,65.40
2018-04-17T21:43:25.136Z,65.10
2018-04-17T21:45:52.668Z,65.70
2018-04-17T21:48:20.196Z,65.90
2018-04-17T21:50:47.739Z,66.20
2018-04-17T21:53:15.331Z,66.70
2018-04-17T21:55:43.620Z,66.90
2018-04-17T21:58:11.933Z,67.20
2018-04-17T22:00:39.463Z,67.20
2018-04-17T22:03:06.994Z,68.10
2018-04-17T22:05:34.516Z,67.90
2018-04-17T22:08:02.068Z,68.40
2018-04-17T22:10:29.591Z,68.60
2018-04-17T22:12:57.148Z,69.40
2018-04-17T22:15:24.681Z,69.00
2018-04-17T22:17:52.227Z,69.20
2018-04-17T22:20:19.738Z,69.20
2018-04-17T22:22:47.277Z,69.60
2018-04-17T22:25:14.806Z,69.10
2018-04-17T22:27:42.344Z,69.40
2018-04-17T22:30:09.860Z,69.50
2018-04-17T22:32:37.408Z,69.60
2018-04-17T22:35:05.696Z,69.20
2018-04-17T22:37:33.625Z,69.20
2018-04-17T22:40:01.170Z,69.90
2018-04-17T22:42:28.708Z,69.90
2018-04-17T22:44:56.245Z,70.20
2018-04-17T22:47:23.773Z,70.20
2018-04-17T22:49:51.302Z,71.20
2018-04-17T22:52:18.873Z,71.30
2018-04-17T22:54:46.419Z,71.70
2018-04-17T22:57:13.971Z,72.00
2018-04-17T22:59:46.366Z,72.00
2018-04-17T23:02:13.910Z,72.00
2018-04-17T23:04:42.226Z,71.90
2018-04-17T23:07:09.765Z,71.90
2018-04-17T23:09:38.099Z,71.90
2018-04-17T23:12:05.631Z,71.90
2018-04-17T23:14:33.936Z,72.40
2018-04-17T23:17:02.244Z,72.60
2018-04-17T23:19:29.765Z,72.60
2018-04-17T23:21:57.285Z,73.60
2018-04-17T23:24:24.814Z,73.60
2018-04-17T23:26:52.332Z,73.70
2018-04-17T23:29:19.913Z,73.90
2018-04-17T23:31:47.429Z,73.70
2018-04-17T23:34:15.723Z,73.70
2018-04-17T23:36:44.033Z,74.00
2018-04-17T23:39:12.337Z,74.70
2018-04-17T23:41:39.901Z,74.60
2018-04-17T23:44:07.456Z,75.30
2018-04-17T23:46:35.019Z,75.20
2018-04-17T23:49:03.301Z,76.20
2018-04-17T23:51:31.577Z,75.60
2018-04-17T23:53:59.116Z,75.60
2018-04-17T23:56:26.648Z,75.70
2018-04-17T23:58:54.197Z,76.60
